Time;durP1;ratioP1;P1;durP2;ratioP2;P2;SDS_P1;SDS_P2;PMS_P1;PMS_P2;Temp;Humidity;BMP_temperature;BMP_pressure;BME280_temperature;BME280_humidity;BME280_pressure;Samples;Min_cycle;Max_cycle;Signal;HPM_P1;HPM_P2
2023/04/24 04:19:45;;;;;;;0.50;0.50;;;7.90;99.90;;;;;;6205459;22;20205;-67
2023/04/24 04:22:12;;;;;;;0.50;0.50;;;7.90;99.90;;;;;;6215387;23;20188;-67
2023/04/24 04:24:40;;;;;;;0.50;0.50;;;7.90;99.90;;;;;;6215683;23;20179;-67
2023/04/24 04:27:07;;;;;;;0.45;0.45;;;7.90;99.90;;;;;;6215698;23;20173;-69
2023/04/24 04:29:35;;;;;;;0.60;0.60;;;7.90;99.90;;;;;;6215365;23;20731;-67
2023/04/24 04:32:02;;;;;;;0.45;0.45;;;7.90;99.90;;;;;;6215679;23;20261;-67
2023/04/24 04:34:29;;;;;;;0.40;0.40;;;8.00;99.90;;;;;;6216444;23;20179;-70
2023/04/24 04:36:59;;;;;;;0.50;0.50;;;8.10;99.90;;;;;;6215841;23;20200;-68
2023/04/24 04:39:26;;;;;;;0.50;0.50;;;8.10;99.90;;;;;;6216056;23;20632;-68
2023/04/24 04:41:52;;;;;;;0.50;0.50;;;8.10;99.90;;;;;;6216521;23;20173;-68
2023/04/24 04:44:19;;;;;;;0.40;0.40;;;8.10;99.90;;;;;;6218980;23;20183;-69
2023/04/24 04:46:47;;;;;;;0.40;0.40;;;8.10;99.90;;;;;;6216652;23;20263;-69
2023/04/24 04:49:16;;;;;;;0.40;0.40;;;8.20;99.90;;;;;;6217159;23;20196;-69
2023/04/24 04:51:43;;;;;;;0.50;0.50;;;8.20;99.90;;;;;;6217724;23;20259;-69
2023/04/24 04:54:11;;;;;;;0.60;0.60;;;8.20;99.90;;;;;;6217082;23;20184;-67
2023/04/24 04:56:38;;;;;;;0.50;0.50;;;8.20;99.90;;;;;;6217338;23;20192;-68
2023/04/24 04:59:06;;;;;;;0.65;0.50;;;8.20;99.90;;;;;;6217283;23;20192;-68
2023/04/24 05:01:32;;;;;;;0.73;0.73;;;8.20;99.90;;;;;;6217685;23;20199;-68
2023/04/24 05:03:59;;;;;;;0.43;0.43;;;8.20;99.90;;;;;;6217419;23;20177;-68
2023/04/24 05:06:26;;;;;;;0.45;0.45;;;8.30;99.90;;;;;;6216874;23;20568;-69
2023/04/24 05:08:56;;;;;;;0.50;0.50;;;8.30;99.90;;;;;;6217209;23;20177;-69
2023/04/24 05:11:24;;;;;;;0.45;0.45;;;8.30;99.90;;;;;;6217439;23;20153;-70
2023/04/24 05:13:51;;;;;;;0.43;0.43;;;8.30;99.90;;;;;;6217462;23;20206;-71
2023/04/24 10:11:31;;;;;;;1.55;0.80;;;13.30;40.80;;;;;;6211859;22;20274;-69
2023/04/24 10:13:59;;;;;;;1.55;1.08;;;13.50;41.50;;;;;;6216827;23;20200;-69
2023/04/24 10:16:28;;;;;;;1.60;1.00;;;13.60;40.90;;;;;;6216625;23;20177;-68
2023/04/24 10:18:55;;;;;;;1.67;1.00;;;13.50;40.10;;;;;;6216683;23;20177;-68
2023/04/24 10:21:23;;;;;;;1.75;1.13;;;13.40;41.80;;;;;;6216625;23;20203;-69
2023/04/24 10:23:51;;;;;;;1.60;0.90;;;13.40;42.20;;;;;;6217349;23;20188;-69
2023/04/24 10:26:19;;;;;;;1.80;1.10;;;13.40;41.80;;;;;;6216194;23;20638;-69
2023/04/24 10:28:48;;;;;;;1.33;1.20;;;13.10;42.20;;;;;;6216534;23;20181;-69
2023/04/24 10:31:15;;;;;;;1.20;1.10;;;12.90;44.10;;;;;;6216534;23;20196;-69
2023/04/24 10:33:43;;;;;;;1.20;1.10;;;12.90;44.60;;;;;;6216585;23;20271;-69
2023/04/24 10:36:11;;;;;;;1.20;1.15;;;13.10;48.20;;;;;;6216442;23;20183;-68
2023/04/24 10:38:41;;;;;;;1.20;1.10;;;13.20;44.60;;;;;;6216497;23;20177;-68
2023/04/24 10:41:10;;;;;;;0.98;0.98;;;13.30;45.90;;;;;;6216407;23;20200;-68
2023/04/24 10:43:37;;;;;;;1.08;0.98;;;13.30;45.20;;;;;;6215901;23;20651;-68
2023/04/24 10:46:06;;;;;;;1.23;1.17;;;13.40;44.30;;;;;;6216154;23;20184;-69
2023/04/24 10:48:34;;;;;;;1.45;1.08;;;13.30;43.00;;;;;;6216420;23;20196;-68
2023/04/24 10:51:00;;;;;;;2.28;1.17;;;13.60;43.30;;;;;;6216157;23;20200;-68
2023/04/24 10:53:30;;;;;;;0.88;0.88;;;13.60;41.10;;;;;;6216340;23;20172;-69
2023/04/24 10:56:04;;;;;;;1.25;1.08;;;13.60;40.00;;;;;;6217398;23;20179;-69
2023/04/24 10:58:39;;;;;;;1.27;1.08;;;13.50;40.90;;;;;;6216767;23;20157;-69
2023/04/24 11:01:08;;;;;;;3.08;1.23;;;13.40;40.30;;;;;;6216743;23;20200;-68
2023/04/24 11:03:36;;;;;;;0.90;0.80;;;13.30;40.30;;;;;;6217213;23;20177;-68
2023/04/24 11:06:04;;;;;;;2.15;1.10;;;13.00;40.40;;;;;;6216530;23;20259;-68
2023/04/24 11:08:37;;;;;;;0.85;0.85;;;12.80;42.70;;;;;;6216824;23;20176;-69
2023/04/24 11:11:09;;;;;;;2.75;0.93;;;12.60;42.60;;;;;;6216892;23;20189;-69
2023/04/24 11:14:07;;;;;;;1.98;1.02;;;12.40;43.90;;;;;;6215958;23;20208;-69
2023/04/24 11:16:38;;;;;;;1.10;0.95;;;12.20;43.90;;;;;;6216569;23;20161;-69
2023/04/24 11:19:07;;;;;;;1.42;0.98;;;12.00;45.50;;;;;;6216868;23;20169;-68
2023/04/24 11:21:41;;;;;;;1.52;1.20;;;11.80;44.20;;;;;;6216050;23;20200;-69
2023/04/24 11:24:25;;;;;;;4.10;1.48;;;11.70;45.20;;;;;;6216487;23;20161;-69
2023/04/24 11:26:53;;;;;;;1.08;0.88;;;11.70;44.30;;;;;;6216084;23;20176;-69
2023/04/24 11:29:21;;;;;;;1.70;0.80;;;11.70;44.40;;;;;;6216123;23;20176;-69
2023/04/24 11:31:51;;;;;;;1.17;1.08;;;11.90;46.20;;;;;;6215930;23;20671;-69
2023/04/24 11:34:18;;;;;;;2.08;0.98;;;12.30;44.40;;;;;;6216675;23;20181;-69
2023/04/24 11:36:45;;;;;;;1.13;1.10;;;12.40;41.90;;;;;;6215991;23;20177;-69
2023/04/24 11:39:13;;;;;;;1.00;1.00;;;12.40;42.50;;;;;;6215974;23;20177;-68
2023/04/24 11:41:40;;;;;;;1.98;1.20;;;12.30;42.00;;;;;;6215794;23;20196;-69
2023/04/24 11:44:08;;;;;;;1.88;0.80;;;12.40;42.20;;;;;;6215847;23;20178;-68
2023/04/24 11:46:37;;;;;;;0.98;0.90;;;12.60;44.10;;;;;;6215858;23;20184;-68
2023/04/24 11:49:06;;;;;;;2.20;0.82;;;13.00;44.40;;;;;;6215590;23;20557;-68
2023/04/24 11:51:33;;;;;;;0.90;0.90;;;13.30;40.60;;;;;;6216092;23;20189;-69
2023/04/24 11:54:00;;;;;;;1.38;0.70;;;13.50;37.80;;;;;;6216126;23;20243;-70
2023/04/24 11:56:28;;;;;;;0.70;0.70;;;13.70;37.60;;;;;;6220229;23;20180;-69
2023/04/24 11:58:55;;;;;;;0.70;0.70;;;13.60;36.30;;;;;;6220655;23;20184;-72
2023/04/24 12:01:23;;;;;;;1.48;0.70;;;13.50;36.00;;;;;;6220278;23;20201;-73
2023/04/24 12:03:50;;;;;;;0.70;0.70;;;13.70;36.50;;;;;;6217646;23;20173;-73
2023/04/24 12:06:19;;;;;;;1.98;1.20;;;13.90;36.50;;;;;;6215972;23;20267;-72
2023/04/24 12:08:49;;;;;;;1.25;0.70;;;14.30;36.70;;;;;;6215871;23;20177;-73
2023/04/24 12:11:18;;;;;;;0.88;0.80;;;14.30;35.30;;;;;;6215753;23;20519;-72
2023/04/24 12:13:46;;;;;;;1.15;0.90;;;14.30;35.50;;;;;;6215676;23;20184;-72
2023/04/24 12:16:13;;;;;;;0.65;0.65;;;14.10;33.90;;;;;;6215775;23;20223;-71
2023/04/24 12:18:43;;;;;;;0.73;0.70;;;14.20;34.60;;;;;;6216166;23;20513;-72
2023/04/24 12:21:23;;;;;;;1.05;0.90;;;14.40;34.90;;;;;;6216026;23;20197;-72
2023/04/24 12:23:51;;;;;;;0.88;0.88;;;14.00;33.00;;;;;;6215653;23;20598;-72
2023/04/24 12:26:19;;;;;;;0.50;0.50;;;14.00;33.40;;;;;;6216091;23;20212;-72
2023/04/24 12:28:49;;;;;;;1.13;0.68;;;14.00;33.10;;;;;;6216127;23;20177;-72
2023/04/24 12:31:17;;;;;;;0.47;0.47;;;14.00;34.20;;;;;;6215825;23;20280;-72
2023/04/24 12:33:44;;;;;;;1.15;1.00;;;14.00;33.40;;;;;;6215922;23;20196;-71
2023/04/24 12:36:12;;;;;;;1.27;1.27;;;14.00;33.50;;;;;;6215893;23;20207;-73
2023/04/24 12:38:41;;;;;;;9.35;1.50;;;14.10;34.60;;;;;;6215717;23;20227;-71
2023/04/24 12:41:08;;;;;;;2.42;1.00;;;14.10;34.20;;;;;;6215443;23;20674;-71
2023/04/24 12:43:36;;;;;;;1.15;1.05;;;13.60;35.50;;;;;;6215887;23;20215;-71
2023/04/24 12:46:03;;;;;;;1.67;0.77;;;13.50;37.40;;;;;;6215927;23;20180;-71
2023/04/24 12:48:31;;;;;;;1.00;0.90;;;13.30;37.90;;;;;;6215437;23;20183;-72
2023/04/24 12:51:01;;;;;;;0.88;0.88;;;13.20;38.70;;;;;;6215891;23;20635;-72
2023/04/24 12:53:29;;;;;;;0.80;0.80;;;13.10;38.20;;;;;;6215922;23;20184;-71
2023/04/24 12:55:57;;;;;;;0.75;0.75;;;12.70;39.80;;;;;;6215765;23;20177;-71
2023/04/24 12:58:24;;;;;;;1.52;1.13;;;12.70;40.40;;;;;;6215680;23;20177;-71
2023/04/24 13:00:51;;;;;;;0.93;0.93;;;12.70;41.20;;;;;;6215481;23;20208;-72
2023/04/24 13:03:17;;;;;;;1.52;1.00;;;12.70;41.20;;;;;;6215261;23;20180;-71
2023/04/24 13:05:45;;;;;;;3.63;1.15;;;12.60;43.50;;;;;;6216120;23;20177;-70
2023/04/24 13:08:12;;;;;;;1.48;1.08;;;12.80;43.60;;;;;;6216334;23;20211;-70
2023/04/24 13:10:39;;;;;;;0.88;0.88;;;12.90;43.00;;;;;;6217101;23;20176;-70
2023/04/24 13:13:08;;;;;;;1.05;0.95;;;13.20;42.10;;;;;;6217569;23;20173;-70
2023/04/24 13:15:35;;;;;;;0.88;0.88;;;13.20;39.90;;;;;;6218747;23;20215;-70
2023/04/24 13:18:02;;;;;;;1.65;0.93;;;13.50;41.60;;;;;;6217730;23;20200;-70
2023/04/24 13:20:28;;;;;;;0.85;0.70;;;13.80;39.30;;;;;;6217542;23;20176;-69
2023/04/24 13:22:55;;;;;;;1.75;0.70;;;13.70;37.10;;;;;;6217533;23;20197;-71
2023/04/24 13:25:23;;;;;;;4.38;0.90;;;14.00;37.40;;;;;;6217482;23;20180;-71
2023/04/24 13:27:50;;;;;;;0.80;0.80;;;14.00;36.00;;;;;;6217387;23;20179;-71
2023/04/24 13:30:19;;;;;;;1.30;0.70;;;14.00;36.00;;;;;;6217336;23;20215;-71
2023/04/24 13:32:45;;;;;;;0.77;0.77;;;13.80;35.50;;;;;;6217241;23;20196;-70
2023/04/24 13:35:12;;;;;;;0.60;0.60;;;13.70;36.00;;;;;;6217247;23;20181;-70
2023/04/24 13:37:39;;;;;;;0.85;0.85;;;13.90;36.90;;;;;;6216989;23;20177;-71
2023/04/24 13:40:07;;;;;;;0.88;0.88;;;14.00;36.00;;;;;;6217396;23;20179;-70
2023/04/24 13:42:34;;;;;;;0.90;0.90;;;13.90;37.30;;;;;;6216997;23;20242;-70
2023/04/24 13:45:00;;;;;;;8.77;2.25;;;13.80;35.90;;;;;;6217373;23;20176;-70
2023/04/24 13:47:28;;;;;;;6.32;1.50;;;13.60;36.10;;;;;;6217137;23;20173;-70
2023/04/24 13:49:56;;;;;;;1.05;0.93;;;13.70;37.10;;;;;;6217648;23;20177;-71
2023/04/24 13:52:22;;;;;;;1.38;0.90;;;13.90;37.30;;;;;;6216566;23;20593;-72
2023/04/24 13:54:49;;;;;;;2.42;0.90;;;14.00;36.20;;;;;;6217077;23;20199;-72
2023/04/24 13:57:16;;;;;;;0.60;0.60;;;14.20;35.50;;;;;;6216969;23;20196;-72
2023/04/24 13:59:43;;;;;;;3.35;0.80;;;14.20;35.40;;;;;;6216948;23;20231;-72
2023/04/24 14:02:10;;;;;;;2.85;0.70;;;14.20;34.90;;;;;;6216444;23;20193;-72
2023/04/24 14:04:38;;;;;;;1.33;1.00;;;14.20;34.60;;;;;;6216947;23;20501;-72
2023/04/24 14:07:04;;;;;;;2.17;0.60;;;14.10;34.40;;;;;;6216907;23;20180;-72
2023/04/24 14:09:31;;;;;;;1.05;0.70;;;13.90;33.60;;;;;;6217239;23;20157;-72
2023/04/24 14:11:58;;;;;;;1.10;0.80;;;14.00;35.60;;;;;;6216787;23;20193;-72
2023/04/24 14:14:25;;;;;;;1.17;0.80;;;13.90;35.30;;;;;;6216678;23;20188;-72
2023/04/24 14:16:52;;;;;;;0.60;0.60;;;13.90;35.00;;;;;;6216980;23;20215;-73
2023/04/24 14:19:18;;;;;;;0.70;0.70;;;13.90;35.00;;;;;;6216635;23;20271;-72
2023/04/24 14:21:46;;;;;;;1.05;0.70;;;13.90;34.20;;;;;;6215811;23;20657;-74
2023/04/24 14:24:13;;;;;;;1.27;0.90;;;13.80;35.50;;;;;;6216774;23;20173;-73
2023/04/24 14:26:40;;;;;;;0.60;0.60;;;13.70;35.20;;;;;;6217106;23;20162;-72
2023/04/24 14:29:06;;;;;;;0.77;0.77;;;13.70;35.20;;;;;;6216765;23;20634;-72
2023/04/24 14:31:33;;;;;;;0.82;0.80;;;13.70;35.10;;;;;;6216150;23;20200;-72
2023/04/24 14:34:00;;;;;;;0.85;0.85;;;13.40;36.10;;;;;;6216820;23;20184;-74
2023/04/24 14:36:26;;;;;;;1.55;0.70;;;13.10;36.60;;;;;;6216829;23;20157;-73
2023/04/24 14:38:54;;;;;;;1.05;0.80;;;13.10;38.90;;;;;;6216602;23;20161;-73
2023/04/24 14:41:21;;;;;;;1.00;0.90;;;13.30;38.60;;;;;;6216463;23;20200;-73
2023/04/24 14:43:48;;;;;;;2.63;1.10;;;13.30;38.10;;;;;;6216750;23;20173;-74
2023/04/24 14:46:15;;;;;;;1.45;0.90;;;13.30;40.90;;;;;;6216340;23;20204;-73
2023/04/24 14:48:42;;;;;;;0.70;0.70;;;13.40;39.60;;;;;;6216682;23;20196;-74
2023/04/24 14:51:09;;;;;;;1.05;0.75;;;13.50;40.80;;;;;;6216411;23;20292;-73
2023/04/24 14:53:36;;;;;;;0.85;0.70;;;13.50;39.70;;;;;;6216560;23;20177;-73
2023/04/24 14:56:04;;;;;;;1.38;0.90;;;13.30;41.60;;;;;;6216611;23;20176;-73
2023/04/24 14:58:31;;;;;;;0.95;0.95;;;13.40;40.00;;;;;;6216362;23;20255;-74
2023/04/24 15:00:58;;;;;;;1.00;0.80;;;13.30;41.50;;;;;;6216647;23;20193;-73
2023/04/24 15:03:26;;;;;;;0.82;0.82;;;13.10;40.90;;;;;;6216243;23;20193;-74
2023/04/24 15:05:53;;;;;;;0.90;0.90;;;13.00;41.50;;;;;;6216517;23;20227;-73
2023/04/24 15:08:20;;;;;;;0.70;0.70;;;12.80;41.90;;;;;;6216674;23;20177;-75
2023/04/24 15:10:47;;;;;;;0.70;0.70;;;12.80;43.90;;;;;;6216761;23;20223;-73
2023/04/24 15:13:15;;;;;;;0.68;0.68;;;12.80;44.30;;;;;;6216535;23;20168;-73
2023/04/24 15:15:42;;;;;;;1.00;0.70;;;12.70;43.40;;;;;;6216253;23;20156;-73
2023/04/24 15:18:11;;;;;;;0.63;0.63;;;12.60;44.00;;;;;;6216403;23;20173;-73
2023/04/24 15:20:38;;;;;;;1.30;0.70;;;12.50;44.70;;;;;;6216126;23;20177;-73
2023/04/24 15:23:05;;;;;;;0.77;0.77;;;12.30;45.30;;;;;;6216009;23;20276;-73
2023/04/24 15:25:33;;;;;;;1.10;1.10;;;12.10;46.10;;;;;;6216274;23;20180;-73
2023/04/24 15:28:00;;;;;;;0.75;0.75;;;11.80;47.50;;;;;;6216154;23;20181;-73
2023/04/24 15:30:28;;;;;;;0.90;0.90;;;11.60;49.10;;;;;;6215860;23;20552;-73
2023/04/24 15:32:55;;;;;;;2.78;0.80;;;11.40;51.50;;;;;;6216258;23;20169;-73
2023/04/24 15:35:22;;;;;;;0.93;0.88;;;11.30;52.80;;;;;;6222069;23;20176;-73
2023/04/24 15:37:49;;;;;;;1.35;1.27;;;11.20;55.00;;;;;;6233598;23;20184;-73
2023/04/24 15:40:16;;;;;;;1.10;1.00;;;11.20;56.80;;;;;;6234783;23;20177;-73
2023/04/24 15:42:43;;;;;;;1.00;1.00;;;11.30;57.50;;;;;;6227319;23;20193;-73
2023/04/24 15:45:11;;;;;;;1.13;1.13;;;11.30;55.60;;;;;;6219995;23;20177;-73
2023/04/24 15:47:39;;;;;;;1.45;0.98;;;11.50;56.10;;;;;;6216640;23;20173;-73
2023/04/24 15:50:09;;;;;;;0.88;0.88;;;11.50;56.30;;;;;;6216208;23;20195;-73
2023/04/24 15:52:36;;;;;;;0.93;0.80;;;11.70;56.50;;;;;;6215853;23;20193;-73
2023/04/24 15:55:04;;;;;;;1.60;0.80;;;11.80;55.40;;;;;;6216088;23;20177;-73
2023/04/24 15:57:31;;;;;;;1.20;1.10;;;11.90;53.90;;;;;;6216093;23;20177;-72
2023/04/24 15:59:57;;;;;;;0.82;0.82;;;11.90;55.20;;;;;;6215987;23;20180;-72
2023/04/24 16:02:24;;;;;;;0.85;0.85;;;11.90;54.90;;;;;;6215793;23;20200;-72
2023/04/24 16:04:53;;;;;;;1.00;1.00;;;11.90;55.20;;;;;;6215994;23;20181;-73
2023/04/24 16:07:20;;;;;;;1.70;0.82;;;11.80;56.70;;;;;;6215705;23;20187;-73
2023/04/24 16:09:46;;;;;;;1.13;1.00;;;11.80;56.60;;;;;;6215939;23;20177;-73
2023/04/24 16:12:13;;;;;;;0.90;0.90;;;11.70;55.40;;;;;;6216010;23;20195;-74
2023/04/24 16:14:40;;;;;;;0.80;0.77;;;11.70;58.00;;;;;;6215611;23;20189;-73
2023/04/24 16:17:07;;;;;;;3.75;1.00;;;11.70;57.20;;;;;;6216023;23;20173;-73
2023/04/24 16:19:34;;;;;;;0.80;0.80;;;11.70;55.70;;;;;;6215881;23;20177;-73
2023/04/24 16:22:02;;;;;;;0.90;0.90;;;11.70;56.90;;;;;;6215949;23;20569;-72
2023/04/24 16:24:29;;;;;;;1.05;0.80;;;11.80;56.10;;;;;;6215920;23;20173;-73
2023/04/24 16:26:56;;;;;;;0.88;0.88;;;11.80;54.40;;;;;;6216283;23;20187;-73
2023/04/24 16:29:23;;;;;;;1.00;0.90;;;11.80;54.70;;;;;;6215973;23;20173;-73
2023/04/24 16:31:50;;;;;;;1.05;1.05;;;11.90;53.20;;;;;;6215871;23;20201;-72
2023/04/24 16:34:16;;;;;;;1.13;0.95;;;11.90;52.20;;;;;;6216006;23;20232;-74
2023/04/24 16:36:43;;;;;;;1.05;1.05;;;11.90;50.70;;;;;;6216227;23;20176;-73
2023/04/24 16:39:11;;;;;;;1.00;1.00;;;11.90;52.30;;;;;;6215780;23;20181;-74
2023/04/24 16:41:38;;;;;;;1.17;1.10;;;12.00;51.70;;;;;;6216205;23;20204;-74
2023/04/24 16:44:05;;;;;;;1.38;1.27;;;11.90;50.70;;;;;;6216310;23;20173;-74
2023/04/24 16:46:32;;;;;;;1.10;1.10;;;11.90;50.10;;;;;;6217366;23;20173;-74
2023/04/24 16:48:59;;;;;;;2.15;0.90;;;11.70;50.00;;;;;;6218091;23;20250;-74
2023/04/24 16:51:26;;;;;;;1.13;1.13;;;11.70;51.40;;;;;;6217743;23;20192;-73
2023/04/24 16:53:53;;;;;;;1.45;1.40;;;11.60;51.10;;;;;;6217499;23;20173;-74
2023/04/24 16:56:22;;;;;;;0.80;0.80;;;11.60;50.70;;;;;;6217587;23;20556;-74
2023/04/24 16:58:49;;;;;;;1.25;1.15;;;11.50;50.80;;;;;;6217930;23;20173;-73
2023/04/24 17:01:15;;;;;;;0.80;0.80;;;11.40;51.00;;;;;;6218611;23;20271;-73
2023/04/24 17:03:42;;;;;;;1.25;1.00;;;11.30;51.30;;;;;;6217391;23;20688;-73
2023/04/24 17:06:09;;;;;;;1.02;0.90;;;11.20;52.60;;;;;;6218979;23;20184;-73
2023/04/24 17:08:36;;;;;;;1.05;1.05;;;11.20;52.20;;;;;;6218872;23;20158;-72
2023/04/24 17:11:03;;;;;;;1.55;1.10;;;11.10;51.40;;;;;;6217889;23;20192;-73
2023/04/24 17:13:31;;;;;;;1.20;1.20;;;11.00;51.70;;;;;;6217101;23;20229;-73
2023/04/24 17:15:58;;;;;;;0.90;0.90;;;10.80;51.70;;;;;;6218170;23;20177;-73
2023/04/24 17:18:25;;;;;;;1.02;0.98;;;10.80;50.90;;;;;;6217693;23;20189;-73
2023/04/24 17:20:52;;;;;;;0.75;0.75;;;10.70;50.20;;;;;;6217617;23;20276;-74
2023/04/24 17:23:20;;;;;;;1.23;0.98;;;10.70;50.50;;;;;;6218186;23;20222;-73
2023/04/24 17:25:47;;;;;;;1.55;0.90;;;10.70;50.00;;;;;;6217686;23;20606;-74
2023/04/24 17:28:23;;;;;;;1.95;1.30;;;10.60;49.90;;;;;;6217665;23;20513;-73
2023/04/24 17:30:53;;;;;;;1.40;1.30;;;10.50;50.20;;;;;;6217434;23;20192;-73
2023/04/24 17:33:20;;;;;;;1.13;1.10;;;10.40;50.70;;;;;;6217554;23;20204;-73
2023/04/24 17:35:47;;;;;;;1.00;0.95;;;10.40;52.10;;;;;;6217612;23;20161;-73
2023/04/24 17:38:14;;;;;;;2.10;1.00;;;10.30;52.30;;;;;;6217241;23;20177;-74
2023/04/24 17:40:44;;;;;;;2.05;1.10;;;10.20;52.20;;;;;;6217626;22;20212;-68
2023/04/24 17:43:17;;;;;;;2.58;1.10;;;10.10;53.00;;;;;;6217034;23;20188;-67
2023/04/24 17:45:58;;;;;;;0.88;0.88;;;10.10;53.80;;;;;;6217423;23;20157;-70
2023/04/24 17:48:29;;;;;;;1.10;1.10;;;10.00;54.00;;;;;;6217040;23;20166;-69
2023/04/24 17:50:57;;;;;;;1.80;1.30;;;9.90;56.40;;;;;;6217088;23;20251;-69
2023/04/24 17:53:32;;;;;;;1.30;1.20;;;9.90;57.70;;;;;;6217226;23;20196;-70
2023/04/24 17:56:02;;;;;;;1.27;1.20;;;9.80;58.90;;;;;;6216676;23;20211;-70
2023/04/24 17:58:33;;;;;;;1.10;1.10;;;9.80;60.40;;;;;;6217199;23;20176;-69
2023/04/24 18:01:08;;;;;;;1.80;1.20;;;9.70;62.20;;;;;;6216819;23;20518;-70
2023/04/24 18:03:44;;;;;;;1.35;1.27;;;9.70;64.50;;;;;;6216977;23;20251;-70
2023/04/24 18:06:17;;;;;;;1.20;1.20;;;9.70;65.60;;;;;;6217065;23;20157;-69
2023/04/24 18:08:44;;;;;;;1.20;1.20;;;9.60;66.80;;;;;;6217268;23;20185;-69
2023/04/24 18:11:11;;;;;;;2.45;2.30;;;9.60;68.00;;;;;;6216146;23;20207;-69
2023/04/24 18:13:51;;;;;;;3.95;2.92;;;9.50;70.10;;;;;;6216662;23;20211;-68
2023/04/24 18:16:23;;;;;;;3.60;3.25;;;9.50;71.90;;;;;;6217244;23;20184;-69
2023/04/24 18:18:55;;;;;;;2.95;2.75;;;9.40;73.20;;;;;;6221152;23;20595;-69
2023/04/24 18:21:22;;;;;;;2.83;2.63;;;9.40;74.70;;;;;;6217175;23;20196;-68
2023/04/24 18:23:49;;;;;;;1.77;1.67;;;9.30;73.80;;;;;;6216652;23;20188;-69
2023/04/24 18:26:25;;;;;;;1.55;1.45;;;9.30;76.10;;;;;;6217327;23;20173;-69
2023/04/24 18:28:52;;;;;;;1.38;1.38;;;9.30;78.20;;;;;;6216742;23;20244;-70
2023/04/24 18:31:21;;;;;;;2.15;1.48;;;9.20;78.20;;;;;;6217256;23;20196;-69
2023/04/24 18:33:48;;;;;;;1.38;1.38;;;9.20;80.10;;;;;;6216273;23;20622;-68
2023/04/24 18:36:15;;;;;;;1.15;1.15;;;9.10;82.80;;;;;;6216528;23;20184;-69
2023/04/24 18:38:46;;;;;;;1.23;1.23;;;9.00;82.10;;;;;;6216987;23;20192;-69
2023/04/24 18:41:16;;;;;;;1.38;1.27;;;8.90;82.90;;;;;;6216423;23;20578;-69
2023/04/24 18:43:42;;;;;;;2.67;1.33;;;8.80;87.50;;;;;;6216539;23;20197;-69
2023/04/24 18:46:09;;;;;;;1.45;1.33;;;8.70;90.70;;;;;;6217074;23;20173;-70
2023/04/24 18:48:38;;;;;;;1.42;1.33;;;8.50;93.10;;;;;;6217129;23;20260;-70
2023/04/24 18:51:05;;;;;;;1.40;1.30;;;8.30;94.50;;;;;;6216207;23;20255;-69
2023/04/24 18:53:32;;;;;;;2.67;1.27;;;8.20;97.10;;;;;;6215513;23;20208;-69
2023/04/24 18:55:59;;;;;;;2.15;1.20;;;8.10;99.40;;;;;;6216670;23;20188;-69
2023/04/24 18:58:34;;;;;;;2.47;1.30;;;8.00;99.90;;;;;;6216740;23;20314;-70
2023/04/24 19:01:10;;;;;;;1.35;1.25;;;7.90;99.90;;;;;;6216386;23;20204;-69
2023/04/24 19:03:42;;;;;;;1.40;1.40;;;7.80;99.90;;;;;;6216120;23;20246;-69
2023/04/24 19:06:10;;;;;;;1.33;1.23;;;7.70;99.90;;;;;;6217329;23;20161;-69
2023/04/24 19:08:37;;;;;;;1.20;1.20;;;7.60;99.90;;;;;;6216208;23;20173;-68
2023/04/24 19:11:05;;;;;;;1.35;1.33;;;7.60;99.90;;;;;;6215908;23;20545;-69
2023/04/24 19:13:33;;;;;;;1.65;1.20;;;7.60;99.90;;;;;;6215964;23;20196;-69
2023/04/24 19:16:02;;;;;;;1.60;1.50;;;7.50;99.90;;;;;;6216229;23;20255;-69
2023/04/24 19:18:43;;;;;;;1.20;1.20;;;7.50;99.90;;;;;;6216567;23;20173;-70
2023/04/24 19:21:15;;;;;;;2.10;1.48;;;7.40;99.90;;;;;;6215936;23;20192;-69
2023/04/24 19:23:49;;;;;;;1.20;1.10;;;7.40;99.90;;;;;;6215803;23;20200;-69
2023/04/24 19:26:18;;;;;;;2.00;1.50;;;7.50;99.90;;;;;;6215839;23;20172;-69
2023/04/24 19:28:45;;;;;;;1.30;1.30;;;7.50;99.90;;;;;;6216142;23;20215;-69
2023/04/24 19:31:12;;;;;;;1.55;1.27;;;7.50;99.90;;;;;;6215937;23;20197;-69
2023/04/24 19:33:47;;;;;;;1.42;1.42;;;7.50;99.90;;;;;;6216234;23;20227;-70
2023/04/24 19:36:16;;;;;;;1.20;1.20;;;7.50;99.90;;;;;;6215848;23;20160;-68
2023/04/24 19:38:46;;;;;;;2.65;1.50;;;7.50;99.90;;;;;;6216534;23;20181;-67
2023/04/24 19:41:14;;;;;;;1.60;1.50;;;7.40;99.90;;;;;;6215894;23;20208;-66
2023/04/24 19:43:49;;;;;;;1.63;1.52;;;7.40;99.90;;;;;;6215647;23;20208;-67
2023/04/24 19:46:19;;;;;;;1.50;1.40;;;7.30;99.90;;;;;;6215803;23;20156;-67
2023/04/24 19:48:52;;;;;;;2.10;1.30;;;7.20;99.90;;;;;;6215990;23;20204;-68
2023/04/24 19:51:24;;;;;;;1.40;1.40;;;7.20;99.90;;;;;;6215558;23;20650;-68
2023/04/24 19:53:55;;;;;;;1.48;1.33;;;7.30;99.90;;;;;;6215758;23;20161;-68
2023/04/24 19:56:32;;;;;;;1.20;1.20;;;7.30;99.90;;;;;;6215885;23;20215;-68
2023/04/24 19:59:02;;;;;;;1.10;1.10;;;7.30;99.90;;;;;;6215838;23;20188;-67
2023/04/24 20:01:31;;;;;;;0.90;0.90;;;7.20;99.90;;;;;;6215810;23;20173;-67
2023/04/24 20:04:02;;;;;;;1.00;1.00;;;7.10;99.90;;;;;;6215957;23;20197;-67
2023/04/24 20:06:32;;;;;;;1.10;1.10;;;7.00;99.90;;;;;;6215581;23;20211;-67
2023/04/24 20:09:05;;;;;;;1.23;1.20;;;6.90;99.90;;;;;;6215615;23;20180;-67
2023/04/24 20:11:38;;;;;;;1.02;1.02;;;6.80;99.90;;;;;;6215755;23;20157;-67
2023/04/24 20:14:08;;;;;;;1.30;1.20;;;6.70;99.90;;;;;;6215765;23;20164;-67
2023/04/24 20:16:39;;;;;;;1.48;1.38;;;6.60;99.90;;;;;;6215552;23;20173;-67
2023/04/24 20:19:08;;;;;;;1.40;1.20;;;6.60;99.90;;;;;;6216266;23;20192;-67
2023/04/24 20:21:48;;;;;;;0.90;0.90;;;6.50;99.90;;;;;;6218261;23;20179;-67
2023/04/24 20:24:15;;;;;;;0.98;0.98;;;6.50;99.90;;;;;;6218131;23;20176;-67
2023/04/24 20:26:42;;;;;;;1.15;1.15;;;6.40;99.90;;;;;;6218260;23;20178;-67
2023/04/24 20:29:15;;;;;;;1.23;1.20;;;6.50;99.90;;;;;;6218449;23;20264;-67
2023/04/24 20:31:47;;;;;;;1.15;1.15;;;6.50;99.90;;;;;;6218405;23;20164;-67
2023/04/24 20:34:19;;;;;;;1.02;1.02;;;6.50;99.90;;;;;;6217809;23;20163;-66
2023/04/24 20:36:46;;;;;;;0.90;0.90;;;6.50;99.90;;;;;;6217585;23;20164;-67
2023/04/24 20:39:32;;;;;;;1.30;1.20;;;6.50;99.90;;;;;;6217680;23;20177;-67
2023/04/24 20:42:05;;;;;;;1.20;1.20;;;6.50;99.90;;;;;;6217932;23;20494;-67
2023/04/24 20:44:35;;;;;;;1.30;1.30;;;6.50;99.90;;;;;;6217787;23;20499;-67
2023/04/24 20:47:02;;;;;;;1.10;1.10;;;6.50;99.90;;;;;;6217629;23;20227;-66
2023/04/24 20:52:13;;;;;;;1.00;1.00;;;6.40;99.90;;;;;;6206781;23;20518;-66
2023/04/24 20:54:40;;;;;;;1.38;1.27;;;6.30;99.90;;;;;;6217336;23;20169;-66
2023/04/24 20:57:09;;;;;;;1.35;1.35;;;6.30;99.90;;;;;;6217021;23;20173;-67
2023/04/24 20:59:38;;;;;;;1.00;0.90;;;6.20;99.90;;;;;;6217025;23;20275;-66
2023/04/24 21:02:13;;;;;;;1.10;1.10;;;6.10;99.90;;;;;;6216891;23;20180;-67
2023/04/24 21:04:42;;;;;;;1.40;1.40;;;6.10;99.90;;;;;;6217305;23;20188;-66
2023/04/24 21:07:11;;;;;;;1.20;1.20;;;6.10;99.90;;;;;;6217368;23;20177;-65
2023/04/24 21:09:39;;;;;;;1.00;1.00;;;6.00;99.90;;;;;;6217173;23;20196;-66
2023/04/24 21:12:08;;;;;;;0.98;0.98;;;6.00;99.90;;;;;;6217116;23;20177;-66
2023/04/24 21:14:35;;;;;;;1.20;1.20;;;6.00;99.90;;;;;;6217354;23;20195;-66
2023/04/24 21:17:05;;;;;;;1.70;1.15;;;5.90;99.90;;;;;;6217220;23;20183;-66
2023/04/24 21:19:33;;;;;;;4.55;1.30;;;5.90;99.90;;;;;;6216994;23;20272;-66
2023/04/24 21:22:03;;;;;;;1.20;1.20;;;5.80;99.90;;;;;;6217245;23;20176;-66
2023/04/24 21:24:31;;;;;;;1.30;1.30;;;5.70;99.90;;;;;;6216782;23;20177;-66
2023/04/24 21:27:01;;;;;;;1.02;1.02;;;5.60;99.90;;;;;;6217261;23;20204;-66
2023/04/24 21:29:35;;;;;;;1.55;1.45;;;5.60;99.90;;;;;;6217131;23;20271;-66
2023/04/24 21:32:04;;;;;;;1.50;1.50;;;5.50;99.90;;;;;;6216825;23;20161;-66
2023/04/24 21:34:34;;;;;;;1.50;1.50;;;5.40;99.90;;;;;;6216706;23;20260;-66
2023/04/24 21:37:08;;;;;;;1.20;1.20;;;5.40;99.90;;;;;;6216260;23;20502;-67
2023/04/24 21:39:37;;;;;;;1.17;1.17;;;5.30;99.90;;;;;;6216563;23;20192;-66
2023/04/24 21:42:06;;;;;;;1.40;1.40;;;5.20;99.90;;;;;;6217091;23;20188;-66
2023/04/24 21:44:36;;;;;;;1.20;1.20;;;5.20;99.90;;;;;;6216873;23;20235;-66
2023/04/24 21:47:05;;;;;;;1.40;1.30;;;5.10;99.90;;;;;;6216572;23;20184;-67
